sensor_id;sensor_type;location;lat;lon;timestamp;temperature;humidity
827;DHT22;395;48.132;11.608;2023-07-08T10:31:13;24.50;1.00
827;DHT22;395;48.132;11.608;2023-07-08T10:34:00;24.50;1.00
827;DHT22;395;48.132;11.608;2023-07-08T10:48:25;24.30;1.00
827;DHT22;395;48.132;11.608;2023-07-08T10:51:30;24.20;1.00
827;DHT22;395;48.132;11.608;2023-07-08T10:58:51;24.30;1.00
827;DHT22;395;48.132;11.608;2023-07-08T11:06:50;24.70;1.00
827;DHT22;395;48.132;11.608;2023-07-08T11:09:23;24.70;1.00
827;DHT22;395;48.132;11.608;2023-07-08T11:11:56;24.90;1.00
827;DHT22;395;48.132;11.608;2023-07-08T11:14:46;25.00;1.00
827;DHT22;395;48.132;11.608;2023-07-08T11:17:30;25.00;1.00
827;DHT22;395;48.132;11.608;2023-07-08T11:20:17;25.00;1.00
827;DHT22;395;48.132;11.608;2023-07-08T11:22:58;25.20;1.00
827;DHT22;395;48.132;11.608;2023-07-08T11:25:27;25.30;1.00
827;DHT22;395;48.132;11.608;2023-07-08T11:27:56;25.30;1.00
827;DHT22;395;48.132;11.608;2023-07-08T11:30:27;25.40;1.00
827;DHT22;395;48.132;11.608;2023-07-08T11:33:08;25.40;1.00
827;DHT22;395;48.132;11.608;2023-07-08T11:35:42;25.50;1.00
827;DHT22;395;48.132;11.608;2023-07-08T11:38:16;25.60;1.00
827;DHT22;395;48.132;11.608;2023-07-08T11:41:14;25.70;1.00
827;DHT22;395;48.132;11.608;2023-07-08T11:43:46;25.70;1.00
827;DHT22;395;48.132;11.608;2023-07-08T11:46:16;25.90;1.00
827;DHT22;395;48.132;11.608;2023-07-08T11:48:47;25.90;1.00
827;DHT22;395;48.132;11.608;2023-07-08T11:51:24;26.00;1.00
827;DHT22;395;48.132;11.608;2023-07-08T11:59:20;26.00;1.00
827;DHT22;395;48.132;11.608;2023-07-08T12:01:52;26.10;1.00
827;DHT22;395;48.132;11.608;2023-07-08T12:04:34;26.20;1.00
827;DHT22;395;48.132;11.608;2023-07-08T12:07:11;26.20;1.00
827;DHT22;395;48.132;11.608;2023-07-08T12:10:05;26.20;1.00
827;DHT22;395;48.132;11.608;2023-07-08T12:12:35;26.30;1.00
827;DHT22;395;48.132;11.608;2023-07-08T12:15:15;26.20;1.00
827;DHT22;395;48.132;11.608;2023-07-08T12:17:42;26.20;1.00
827;DHT22;395;48.132;11.608;2023-07-08T12:20:25;26.30;1.00
827;DHT22;395;48.132;11.608;2023-07-08T12:22:52;26.40;1.00
827;DHT22;395;48.132;11.608;2023-07-08T12:25:22;26.50;1.00
827;DHT22;395;48.132;11.608;2023-07-08T12:27:48;26.60;1.00
827;DHT22;395;48.132;11.608;2023-07-08T12:30:15;26.80;1.00
827;DHT22;395;48.132;11.608;2023-07-08T12:32:41;27.00;1.00
827;DHT22;395;48.132;11.608;2023-07-08T12:35:26;27.20;1.00
827;DHT22;395;48.132;11.608;2023-07-08T12:37:54;27.40;1.00
827;DHT22;395;48.132;11.608;2023-07-08T12:40:23;27.60;1.00
827;DHT22;395;48.132;11.608;2023-07-08T12:42:50;27.60;1.00
827;DHT22;395;48.132;11.608;2023-07-08T12:45:20;27.70;1.00
827;DHT22;395;48.132;11.608;2023-07-08T12:47:46;27.90;1.00
827;DHT22;395;48.132;11.608;2023-07-08T12:50:13;27.90;1.00
827;DHT22;395;48.132;11.608;2023-07-08T12:52:39;27.80;1.00
827;DHT22;395;48.132;11.608;2023-07-08T12:55:05;27.80;1.00
827;DHT22;395;48.132;11.608;2023-07-08T12:57:33;27.80;1.00
827;DHT22;395;48.132;11.608;2023-07-08T13:00:01;27.80;1.00
827;DHT22;395;48.132;11.608;2023-07-08T13:02:28;27.90;1.00
827;DHT22;395;48.132;11.608;2023-07-08T13:04:59;28.00;1.00
827;DHT22;395;48.132;11.608;2023-07-08T13:07:40;28.00;1.00
827;DHT22;395;48.132;11.608;2023-07-08T13:10:13;28.20;1.00
827;DHT22;395;48.132;11.608;2023-07-08T13:12:41;28.30;1.00
827;DHT22;395;48.132;11.608;2023-07-08T13:15:14;28.50;1.00
827;DHT22;395;48.132;11.608;2023-07-08T13:17:41;28.70;1.00
827;DHT22;395;48.132;11.608;2023-07-08T13:20:13;28.80;1.00
827;DHT22;395;48.132;11.608;2023-07-08T13:22:40;28.80;1.00
827;DHT22;395;48.132;11.608;2023-07-08T13:25:16;29.00;1.00
827;DHT22;395;48.132;11.608;2023-07-08T13:27:41;29.30;1.00
827;DHT22;395;48.132;11.608;2023-07-08T13:30:19;29.40;1.00
827;DHT22;395;48.132;11.608;2023-07-08T13:32:48;29.40;1.00
827;DHT22;395;48.132;11.608;2023-07-08T13:35:27;29.50;1.00
827;DHT22;395;48.132;11.608;2023-07-08T13:37:53;29.60;1.00
827;DHT22;395;48.132;11.608;2023-07-08T13:40:20;29.70;1.00
827;DHT22;395;48.132;11.608;2023-07-08T13:42:49;29.60;1.00
827;DHT22;395;48.132;11.608;2023-07-08T13:45:22;29.40;1.00
827;DHT22;395;48.132;11.608;2023-07-08T13:50:39;29.20;1.00
827;DHT22;395;48.132;11.608;2023-07-08T13:53:20;29.40;1.00
827;DHT22;395;48.132;11.608;2023-07-08T13:55:47;29.60;1.00
827;DHT22;395;48.132;11.608;2023-07-08T13:58:17;29.80;1.00
827;DHT22;395;48.132;11.608;2023-07-08T14:00:43;30.00;1.00
827;DHT22;395;48.132;11.608;2023-07-08T14:03:11;30.10;1.00
827;DHT22;395;48.132;11.608;2023-07-08T14:05:38;30.10;1.00
827;DHT22;395;48.132;11.608;2023-07-08T14:08:14;30.20;1.00
827;DHT22;395;48.132;11.608;2023-07-08T14:10:41;30.30;1.00
827;DHT22;395;48.132;11.608;2023-07-08T14:13:06;30.40;1.00
827;DHT22;395;48.132;11.608;2023-07-08T14:15:32;30.50;1.00
827;DHT22;395;48.132;11.608;2023-07-08T14:18:00;30.70;1.00
827;DHT22;395;48.132;11.608;2023-07-08T14:20:28;31.00;1.00
827;DHT22;395;48.132;11.608;2023-07-08T14:22:55;31.10;1.00
827;DHT22;395;48.132;11.608;2023-07-08T14:25:20;31.00;1.00
827;DHT22;395;48.132;11.608;2023-07-08T14:27:51;30.80;1.00
827;DHT22;395;48.132;11.608;2023-07-08T14:30:17;30.20;1.00
827;DHT22;395;48.132;11.608;2023-07-08T14:32:43;30.00;1.00
827;DHT22;395;48.132;11.608;2023-07-08T14:35:25;30.10;1.00
827;DHT22;395;48.132;11.608;2023-07-08T14:37:52;29.60;1.00
827;DHT22;395;48.132;11.608;2023-07-08T14:40:32;29.50;1.00
827;DHT22;395;48.132;11.608;2023-07-08T14:45:42;29.30;1.00
827;DHT22;395;48.132;11.608;2023-07-08T14:48:13;29.20;1.00
827;DHT22;395;48.132;11.608;2023-07-08T14:50:39;29.20;1.00
827;DHT22;395;48.132;11.608;2023-07-08T14:53:05;29.20;1.00
827;DHT22;395;48.132;11.608;2023-07-08T14:55:32;29.30;1.00
827;DHT22;395;48.132;11.608;2023-07-08T14:57:57;29.40;1.00
827;DHT22;395;48.132;11.608;2023-07-08T15:00:23;29.30;1.00
827;DHT22;395;48.132;11.608;2023-07-08T15:02:51;29.10;1.00
827;DHT22;395;48.132;11.608;2023-07-08T15:05:22;29.10;1.00
827;DHT22;395;48.132;11.608;2023-07-08T15:07:54;29.00;1.00
827;DHT22;395;48.132;11.608;2023-07-08T15:10:23;29.00;1.00
827;DHT22;395;48.132;11.608;2023-07-08T15:12:49;28.90;1.00
827;DHT22;395;48.132;11.608;2023-07-08T15:15:24;28.90;1.00
827;DHT22;395;48.132;11.608;2023-07-08T15:17:51;28.80;1.00
827;DHT22;395;48.132;11.608;2023-07-08T15:20:17;28.80;1.00
827;DHT22;395;48.132;11.608;2023-07-08T15:22:44;28.90;1.00
827;DHT22;395;48.132;11.608;2023-07-08T15:25:14;28.90;1.00
827;DHT22;395;48.132;11.608;2023-07-08T15:27:49;29.20;1.00
827;DHT22;395;48.132;11.608;2023-07-08T15:32:43;29.30;1.00
827;DHT22;395;48.132;11.608;2023-07-08T15:35:21;29.20;1.00
827;DHT22;395;48.132;11.608;2023-07-08T15:37:47;29.10;1.00
827;DHT22;395;48.132;11.608;2023-07-08T15:40:17;29.10;1.00
827;DHT22;395;48.132;11.608;2023-07-08T15:42:46;29.00;1.00
827;DHT22;395;48.132;11.608;2023-07-08T15:45:16;28.90;1.00
827;DHT22;395;48.132;11.608;2023-07-08T15:47:43;28.90;1.00
827;DHT22;395;48.132;11.608;2023-07-08T15:50:13;29.00;1.00
827;DHT22;395;48.132;11.608;2023-07-08T15:52:38;29.00;1.00
827;DHT22;395;48.132;11.608;2023-07-08T15:55:05;29.00;1.00
827;DHT22;395;48.132;11.608;2023-07-08T15:57:32;29.10;1.00
827;DHT22;395;48.132;11.608;2023-07-08T15:59:58;29.30;1.00
827;DHT22;395;48.132;11.608;2023-07-08T16:02:29;29.60;1.00
827;DHT22;395;48.132;11.608;2023-07-08T16:04:55;29.90;1.00
827;DHT22;395;48.132;11.608;2023-07-08T16:07:21;30.10;1.00
827;DHT22;395;48.132;11.608;2023-07-08T16:09:46;30.40;1.00
827;DHT22;395;48.132;11.608;2023-07-08T16:12:16;30.40;1.00
827;DHT22;395;48.132;11.608;2023-07-08T16:14:44;30.40;1.00
827;DHT22;395;48.132;11.608;2023-07-08T16:17:10;30.70;1.00
827;DHT22;395;48.132;11.608;2023-07-08T16:19:36;30.90;1.00
827;DHT22;395;48.132;11.608;2023-07-08T16:22:02;31.00;1.00
827;DHT22;395;48.132;11.608;2023-07-08T16:24:28;30.90;1.00
827;DHT22;395;48.132;11.608;2023-07-08T16:26:54;31.00;1.00
827;DHT22;395;48.132;11.608;2023-07-08T16:29:21;31.00;1.00
827;DHT22;395;48.132;11.608;2023-07-08T16:31:47;30.90;1.00
827;DHT22;395;48.132;11.608;2023-07-08T16:34:14;30.80;1.00
827;DHT22;395;48.132;11.608;2023-07-08T16:36:40;30.70;1.00
827;DHT22;395;48.132;11.608;2023-07-08T16:39:06;30.70;1.00
827;DHT22;395;48.132;11.608;2023-07-08T16:41:34;30.80;1.00
827;DHT22;395;48.132;11.608;2023-07-08T16:44:13;30.90;1.00
827;DHT22;395;48.132;11.608;2023-07-08T16:46:40;31.10;1.00
827;DHT22;395;48.132;11.608;2023-07-08T16:49:08;31.30;1.00
827;DHT22;395;48.132;11.608;2023-07-08T16:51:34;31.40;1.00
827;DHT22;395;48.132;11.608;2023-07-08T16:54:17;31.50;1.00
827;DHT22;395;48.132;11.608;2023-07-08T16:56:45;31.50;1.00
827;DHT22;395;48.132;11.608;2023-07-08T16:59:13;31.40;1.00
827;DHT22;395;48.132;11.608;2023-07-08T17:01:39;31.20;1.00
827;DHT22;395;48.132;11.608;2023-07-08T17:04:05;30.90;1.00
827;DHT22;395;48.132;11.608;2023-07-08T17:06:32;31.10;1.00
827;DHT22;395;48.132;11.608;2023-07-08T17:09:00;31.30;1.00
827;DHT22;395;48.132;11.608;2023-07-08T17:11:30;31.40;1.00
827;DHT22;395;48.132;11.608;2023-07-08T17:13:55;31.50;1.00
827;DHT22;395;48.132;11.608;2023-07-08T17:16:28;31.60;1.00
827;DHT22;395;48.132;11.608;2023-07-08T17:18:56;31.80;1.00
827;DHT22;395;48.132;11.608;2023-07-08T17:21:22;31.90;1.00
827;DHT22;395;48.132;11.608;2023-07-08T17:23:48;31.90;1.00
827;DHT22;395;48.132;11.608;2023-07-08T17:26:14;31.90;1.00
827;DHT22;395;48.132;11.608;2023-07-08T17:28:40;31.50;1.00
827;DHT22;395;48.132;11.608;2023-07-08T17:31:09;31.10;1.00
827;DHT22;395;48.132;11.608;2023-07-08T17:33:39;31.20;1.00
827;DHT22;395;48.132;11.608;2023-07-08T17:36:11;31.20;1.00
827;DHT22;395;48.132;11.608;2023-07-08T17:38:46;31.30;1.00
827;DHT22;395;48.132;11.608;2023-07-08T17:41:15;31.50;1.00
827;DHT22;395;48.132;11.608;2023-07-08T17:43:41;31.60;1.00
827;DHT22;395;48.132;11.608;2023-07-08T17:46:11;31.70;1.00
827;DHT22;395;48.132;11.608;2023-07-08T17:48:38;31.70;1.00
827;DHT22;395;48.132;11.608;2023-07-08T17:51:05;31.90;1.00
827;DHT22;395;48.132;11.608;2023-07-08T17:53:31;31.90;1.00
827;DHT22;395;48.132;11.608;2023-07-08T17:55:57;31.90;1.00
827;DHT22;395;48.132;11.608;2023-07-08T17:58:23;32.00;1.00
827;DHT22;395;48.132;11.608;2023-07-08T18:00:49;32.10;1.00
827;DHT22;395;48.132;11.608;2023-07-08T18:03:15;32.30;1.00
827;DHT22;395;48.132;11.608;2023-07-08T18:05:40;32.40;1.00
827;DHT22;395;48.132;11.608;2023-07-08T18:08:06;32.50;1.00
827;DHT22;395;48.132;11.608;2023-07-08T18:10:32;32.60;1.00
827;DHT22;395;48.132;11.608;2023-07-08T18:12:59;32.60;1.00
827;DHT22;395;48.132;11.608;2023-07-08T18:15:31;32.50;1.00
827;DHT22;395;48.132;11.608;2023-07-08T18:18:01;32.30;1.00
827;DHT22;395;48.132;11.608;2023-07-08T18:20:35;32.20;1.00
827;DHT22;395;48.132;11.608;2023-07-08T18:23:04;32.00;1.00
827;DHT22;395;48.132;11.608;2023-07-08T18:25:36;31.90;1.00
827;DHT22;395;48.132;11.608;2023-07-08T18:28:04;31.80;1.00
827;DHT22;395;48.132;11.608;2023-07-08T18:30:30;31.60;1.00
827;DHT22;395;48.132;11.608;2023-07-08T18:32:57;31.50;1.00
827;DHT22;395;48.132;11.608;2023-07-08T18:35:28;31.40;1.00
827;DHT22;395;48.132;11.608;2023-07-08T18:37:55;31.30;1.00
827;DHT22;395;48.132;11.608;2023-07-08T18:40:31;31.20;1.00
827;DHT22;395;48.132;11.608;2023-07-08T18:45:24;30.70;1.00
827;DHT22;395;48.132;11.608;2023-07-08T18:47:50;30.60;1.00
827;DHT22;395;48.132;11.608;2023-07-08T18:50:16;30.30;1.00
827;DHT22;395;48.132;11.608;2023-07-08T18:52:42;30.10;1.00
827;DHT22;395;48.132;11.608;2023-07-08T18:55:15;30.00;1.00
827;DHT22;395;48.132;11.608;2023-07-08T18:57:42;29.80;1.00
827;DHT22;395;48.132;11.608;2023-07-08T19:00:16;29.60;1.00
827;DHT22;395;48.132;11.608;2023-07-08T19:02:56;29.50;1.00
827;DHT22;395;48.132;11.608;2023-07-08T19:05:24;29.30;1.00
827;DHT22;395;48.132;11.608;2023-07-08T19:07:51;29.10;1.00
827;DHT22;395;48.132;11.608;2023-07-08T19:10:18;28.90;1.00
827;DHT22;395;48.132;11.608;2023-07-08T19:12:46;28.80;1.00
827;DHT22;395;48.132;11.608;2023-07-08T19:15:27;28.60;1.00
827;DHT22;395;48.132;11.608;2023-07-08T19:17:53;28.50;1.00
827;DHT22;395;48.132;11.608;2023-07-08T19:20:24;28.40;1.00
827;DHT22;395;48.132;11.608;2023-07-08T19:22:51;28.30;1.00
827;DHT22;395;48.132;11.608;2023-07-08T19:27:46;27.90;1.00
827;DHT22;395;48.132;11.608;2023-07-08T19:30:12;27.90;1.00
827;DHT22;395;48.132;11.608;2023-07-08T19:32:40;27.80;1.00
827;DHT22;395;48.132;11.608;2023-07-08T19:35:18;27.70;1.00
827;DHT22;395;48.132;11.608;2023-07-08T19:37:44;27.60;1.00
827;DHT22;395;48.132;11.608;2023-07-08T19:40:12;27.50;1.00
827;DHT22;395;48.132;11.608;2023-07-08T19:42:39;27.50;1.00
827;DHT22;395;48.132;11.608;2023-07-08T19:45:21;27.40;1.00
827;DHT22;395;48.132;11.608;2023-07-08T19:47:48;27.20;1.00
827;DHT22;395;48.132;11.608;2023-07-08T19:50:14;27.10;1.00
827;DHT22;395;48.132;11.608;2023-07-08T19:52:40;27.00;1.00
827;DHT22;395;48.132;11.608;2023-07-08T19:55:06;26.90;1.00
827;DHT22;395;48.132;11.608;2023-07-08T19:57:44;26.90;1.00
827;DHT22;395;48.132;11.608;2023-07-08T20:00:21;26.80;1.00
827;DHT22;395;48.132;11.608;2023-07-08T20:02:48;26.80;1.00
827;DHT22;395;48.132;11.608;2023-07-08T20:05:14;26.70;1.00
827;DHT22;395;48.132;11.608;2023-07-08T20:07:41;26.70;1.00
827;DHT22;395;48.132;11.608;2023-07-08T20:10:14;26.50;1.00
827;DHT22;395;48.132;11.608;2023-07-08T20:12:41;26.50;1.00
827;DHT22;395;48.132;11.608;2023-07-08T20:15:07;26.40;1.00
827;DHT22;395;48.132;11.608;2023-07-08T20:17:33;26.40;1.00
827;DHT22;395;48.132;11.608;2023-07-08T20:19:59;26.30;1.00
827;DHT22;395;48.132;11.608;2023-07-08T20:22:25;26.30;1.00
827;DHT22;395;48.132;11.608;2023-07-08T20:24:51;26.30;1.00
827;DHT22;395;48.132;11.608;2023-07-08T20:27:17;26.20;1.00
827;DHT22;395;48.132;11.608;2023-07-08T20:29:43;26.20;1.00
827;DHT22;395;48.132;11.608;2023-07-08T20:32:15;26.10;1.00
827;DHT22;395;48.132;11.608;2023-07-08T20:34:41;26.10;1.00
827;DHT22;395;48.132;11.608;2023-07-08T20:37:13;26.00;1.00
827;DHT22;395;48.132;11.608;2023-07-08T20:39:39;26.00;1.00
827;DHT22;395;48.132;11.608;2023-07-08T20:42:10;25.90;1.00
827;DHT22;395;48.132;11.608;2023-07-08T20:44:36;25.80;1.00
827;DHT22;395;48.132;11.608;2023-07-08T20:47:01;25.80;1.00
827;DHT22;395;48.132;11.608;2023-07-08T20:49:27;25.70;1.00
827;DHT22;395;48.132;11.608;2023-07-08T20:51:53;25.70;1.00
827;DHT22;395;48.132;11.608;2023-07-08T20:54:18;25.60;1.00
827;DHT22;395;48.132;11.608;2023-07-08T20:56:44;25.60;1.00
827;DHT22;395;48.132;11.608;2023-07-08T20:59:17;25.60;1.00
827;DHT22;395;48.132;11.608;2023-07-08T21:01:43;25.50;1.00
827;DHT22;395;48.132;11.608;2023-07-08T21:04:09;25.50;1.00
827;DHT22;395;48.132;11.608;2023-07-08T21:06:35;25.50;1.00
827;DHT22;395;48.132;11.608;2023-07-08T21:09:01;25.40;1.00
827;DHT22;395;48.132;11.608;2023-07-08T21:11:27;25.40;1.00
827;DHT22;395;48.132;11.608;2023-07-08T21:13:53;25.40;1.00
827;DHT22;395;48.132;11.608;2023-07-08T21:16:24;25.30;1.00
827;DHT22;395;48.132;11.608;2023-07-08T21:18:52;25.30;1.00
827;DHT22;395;48.132;11.608;2023-07-08T21:21:19;25.30;1.00
827;DHT22;395;48.132;11.608;2023-07-08T21:23:45;25.30;1.00
827;DHT22;395;48.132;11.608;2023-07-08T21:26:24;25.30;1.00
827;DHT22;395;48.132;11.608;2023-07-08T21:28:53;25.20;1.00
827;DHT22;395;48.132;11.608;2023-07-08T21:31:20;25.20;1.00
827;DHT22;395;48.132;11.608;2023-07-08T21:33:46;25.10;1.00
827;DHT22;395;48.132;11.608;2023-07-08T21:36:19;25.10;1.00
827;DHT22;395;48.132;11.608;2023-07-08T21:38:46;25.10;1.00
827;DHT22;395;48.132;11.608;2023-07-08T21:41:12;25.00;1.00
827;DHT22;395;48.132;11.608;2023-07-08T21:43:37;25.00;1.00
827;DHT22;395;48.132;11.608;2023-07-08T21:46:03;24.90;1.00
827;DHT22;395;48.132;11.608;2023-07-08T21:48:30;24.90;1.00
827;DHT22;395;48.132;11.608;2023-07-08T21:50:57;24.90;1.00
827;DHT22;395;48.132;11.608;2023-07-08T21:53:24;24.80;1.00
827;DHT22;395;48.132;11.608;2023-07-08T21:55:54;24.80;1.00
827;DHT22;395;48.132;11.608;2023-07-08T21:58:20;24.70;1.00
827;DHT22;395;48.132;11.608;2023-07-08T22:00:46;24.70;1.00
827;DHT22;395;48.132;11.608;2023-07-08T22:03:18;24.70;1.00
827;DHT22;395;48.132;11.608;2023-07-08T22:05:45;24.70;1.00
827;DHT22;395;48.132;11.608;2023-07-08T22:08:18;24.60;1.00
827;DHT22;395;48.132;11.608;2023-07-08T22:10:48;24.60;1.00
827;DHT22;395;48.132;11.608;2023-07-08T22:13:29;24.50;1.00
827;DHT22;395;48.132;11.608;2023-07-08T22:15:57;24.40;1.00
827;DHT22;395;48.132;11.608;2023-07-08T22:18:24;24.40;1.00
827;DHT22;395;48.132;11.608;2023-07-08T22:20:58;24.40;1.00
827;DHT22;395;48.132;11.608;2023-07-08T22:23:26;24.30;1.00
827;DHT22;395;48.132;11.608;2023-07-08T22:25:53;24.30;1.00
827;DHT22;395;48.132;11.608;2023-07-08T22:28:19;24.30;1.00
827;DHT22;395;48.132;11.608;2023-07-08T22:30:46;24.30;1.00
827;DHT22;395;48.132;11.608;2023-07-08T22:33:14;24.30;1.00
827;DHT22;395;48.132;11.608;2023-07-08T22:35:41;24.20;1.00
827;DHT22;395;48.132;11.608;2023-07-08T22:38:08;24.20;1.00
827;DHT22;395;48.132;11.608;2023-07-08T22:40:45;24.20;1.00
827;DHT22;395;48.132;11.608;2023-07-08T22:45:46;24.00;1.00
827;DHT22;395;48.132;11.608;2023-07-08T22:48:12;24.00;1.00
827;DHT22;395;48.132;11.608;2023-07-08T22:50:38;23.90;1.00
827;DHT22;395;48.132;11.608;2023-07-08T22:53:13;23.90;1.00
827;DHT22;395;48.132;11.608;2023-07-08T22:55:40;23.90;1.00
827;DHT22;395;48.132;11.608;2023-07-08T23:00:47;23.90;1.00
827;DHT22;395;48.132;11.608;2023-07-08T23:03:13;23.90;1.00
827;DHT22;395;48.132;11.608;2023-07-08T23:05:39;23.80;1.00
827;DHT22;395;48.132;11.608;2023-07-08T23:08:14;23.80;1.00
827;DHT22;395;48.132;11.608;2023-07-08T23:10:41;23.80;1.00
827;DHT22;395;48.132;11.608;2023-07-08T23:13:23;23.70;1.00
827;DHT22;395;48.132;11.608;2023-07-08T23:15:49;23.70;1.00
827;DHT22;395;48.132;11.608;2023-07-08T23:18:17;23.70;1.00
827;DHT22;395;48.132;11.608;2023-07-08T23:20:44;23.70;1.00
827;DHT22;395;48.132;11.608;2023-07-08T23:23:14;23.70;1.00
827;DHT22;395;48.132;11.608;2023-07-08T23:25:41;23.70;1.00
827;DHT22;395;48.132;11.608;2023-07-08T23:28:10;23.70;1.00
827;DHT22;395;48.132;11.608;2023-07-08T23:30:36;23.60;1.00
827;DHT22;395;48.132;11.608;2023-07-08T23:33:02;23.60;1.00
827;DHT22;395;48.132;11.608;2023-07-08T23:35:28;23.50;1.00
827;DHT22;395;48.132;11.608;2023-07-08T23:37:54;23.50;1.00
827;DHT22;395;48.132;11.608;2023-07-08T23:40:22;23.50;1.00
827;DHT22;395;48.132;11.608;2023-07-08T23:42:48;23.50;1.00
827;DHT22;395;48.132;11.608;2023-07-08T23:45:15;23.50;1.00
827;DHT22;395;48.132;11.608;2023-07-08T23:47:41;23.40;1.00
827;DHT22;395;48.132;11.608;2023-07-08T23:50:19;23.40;1.00
827;DHT22;395;48.132;11.608;2023-07-08T23:52:46;23.40;1.00
827;DHT22;395;48.132;11.608;2023-07-08T23:55:13;23.40;1.00
827;DHT22;395;48.132;11.608;2023-07-08T23:57:39;23.30;1.00
